NCAR-RAP Real-Time Weather Data

Output produced by METARs form (17 September 2019  17:21 UTC)
found at http://weather.rap.ucar.edu/surface/
 
KATY 171653Z AUTO 19020G35KT 10SM CLR 27/20 A2977 RMK AO2 PK WND 19037/1559 SLP068 T02720200
KATY 171553Z AUTO 19019G31KT 10SM CLR 26/20 A2978 RMK AO2 PK WND 19032/1522 SLP070 T02610200
KATY 171453Z AUTO 18017G29KT 10SM CLR 25/20 A2978 RMK AO2 PK WND 17029/1421 SLP073 T02500200 50000
KATY 171353Z AUTO 18015G27KT 10SM CLR 24/19 A2979 RMK AO2 PK WND 16027/1349 SLP075 T02390194
KATY 171253Z AUTO 17013G24KT 10SM CLR 23/19 A2979 RMK AO2 SLP077 T02280194
KATY 171153Z AUTO 16014G22KT 10SM CLR 23/19 A2979 RMK AO2 PK WND 15026/1112 SLP074 60019 70020 T02280194 10233 20222 56006
KATY 171053Z AUTO 16013G21KT 10SM CLR 22/20 A2978 RMK AO2 SLP073 T02220200
KATY 170953Z AUTO 16011G21KT 10SM CLR 23/20 A2980 RMK AO2 SLP077 T02280200
KATY 170853Z AUTO 14015G27KT 10SM FEW080 BKN110 23/20 A2980 RMK AO2 PK WND 15027/0851 RAE38 SLP079 P0001 60019 T02280200 58025
KATY 170753Z AUTO 13013G21KT 7SM -RA OVC100 23/21 A2984 RMK AO2 SLP090 P0008 T02280206
KATY 170653Z AUTO 15009KT 5SM RA BR SCT070 OVC095 23/21 A2988 RMK AO2 LTG DSNT SW-N TSB11E26 SLP106 P0010 T02280211
KATY 170632Z AUTO 16013G22KT 6SM VCTS -RA FEW075 OVC095 23/21 A2988 RMK AO2 LTG DSNT ALQDS TSB11E26 P0006 T02330206
KATY 170617Z AUTO 18009KT 6SM -TSRA BR SCT085 OVC110 22/21 A2989 RMK AO2 LTG DSNT ALQDS TSB11 P0004 T02220211
KATY 170553Z AUTO 20010KT 9SM VCTS -RA BKN095 23/21 A2988 RMK AO2 LTG DSNT ALQDS RAB13E33B51 TSB24E49 SLP106 P0001 60001 T02280211 10250 20228 402830183 53004
KATY 170530Z AUTO 16010KT 10SM -TSRA BKN090 23/21 A2986 RMK AO2 LTG DSNT SW AND W RAB13 TSB24 P0001 T02330211
KATY 170453Z AUTO 16015G23KT 10SM FEW100 24/21 A2986 RMK AO2 PK WND 15028/0441 LTG DSNT W SLP098 T02390206
KATY 170353Z AUTO 15011G20KT 10SM CLR 24/21 A2986 RMK AO2 SLP102 T02390206
KATY 170253Z AUTO 15013KT 10SM CLR 24/21 A2987 RMK AO2 SLP104 T02390211 53003
KATY 170053Z AUTO 15012KT 10SM CLR 24/21 A2986 RMK AO2 SLP102 T02440211
KATY 162353Z AUTO 15013G21KT 10SM CLR 25/21 A2986 RMK AO2 SLP102 T02500211 10283 20250 58004
KATY 162253Z AUTO 15010G24KT 10SM CLR 27/21 A2986 RMK AO2 SLP102 T02670206
KATY 162153Z AUTO 17012G23KT 10SM CLR 27/21 A2987 RMK AO2 PK WND 16026/2127 SLP104 T02720206
KATY 162053Z AUTO 16010G20KT 10SM CLR 27/21 A2987 RMK AO2 SLP104 T02720211 56006